Time;durP1;ratioP1;P1;durP2;ratioP2;P2;SDS_P1;SDS_P2;PMS_P1;PMS_P2;Temp;Humidity;BMP_temperature;BMP_pressure;BME280_temperature;BME280_humidity;BME280_pressure;Samples;Min_cycle;Max_cycle;Signal;HPM_P1;HPM_P2
2023/03/22 00:00:38;;;;;;;11.00;9.10;;;;;;;11.97;65.25;101560.71;107110;1266;22511;-51
2023/03/22 00:03:08;;;;;;;12.80;9.70;;;;;;;11.97;65.35;101559.67;107195;1267;25274;-50
2023/03/22 00:05:38;;;;;;;13.80;9.20;;;;;;;11.96;65.26;101557.95;107163;1251;26496;-50
2023/03/22 00:08:27;;;;;;;15.10;9.60;;;;;;;11.95;65.30;101560.23;107012;1266;22547;-50
2023/03/22 00:10:55;;;;;;;13.10;10.10;;;;;;;11.94;65.36;101559.36;107081;1266;23107;-50
2023/03/22 00:13:26;;;;;;;13.30;9.10;;;;;;;11.93;65.25;101558.67;106936;1269;25365;-50
2023/03/22 00:15:54;;;;;;;11.60;9.60;;;;;;;11.92;65.34;101556.61;107086;1266;25353;-50
2023/03/22 00:18:30;;;;;;;13.10;8.80;;;;;;;11.92;65.34;101560.61;107128;1269;23212;-49
2023/03/22 00:20:59;;;;;;;12.70;9.40;;;;;;;11.91;65.35;101561.67;106444;1266;1002858;-49
2023/03/22 00:23:28;;;;;;;13.70;10.00;;;;;;;11.91;65.48;101563.76;107136;1266;24195;-50
2023/03/22 00:25:56;;;;;;;13.30;9.60;;;;;;;11.90;65.49;101562.73;107088;1266;26512;-50
2023/03/22 00:28:26;;;;;;;12.70;9.60;;;;;;;11.89;65.47;101560.83;107003;1269;25343;-50
2023/03/22 00:31:01;;;;;;;13.00;9.50;;;;;;;11.89;65.45;101560.13;107112;1251;25350;-49
2023/03/22 00:33:30;;;;;;;12.00;9.40;;;;;;;11.89;65.36;101558.58;107130;1266;22514;-49
2023/03/22 00:36:00;;;;;;;13.20;9.80;;;;;;;11.88;65.48;101558.59;107222;1266;24216;-50
2023/03/22 00:38:46;;;;;;;11.90;9.30;;;;;;;11.88;65.45;101557.55;107141;1267;22635;-49
2023/03/22 00:41:16;;;;;;;13.90;9.70;;;;;;;11.87;65.54;101559.30;107073;1266;25331;-50
2023/03/22 00:43:48;;;;;;;13.10;9.40;;;;;;;11.87;65.52;101556.70;107107;1267;25346;-49
2023/03/22 00:46:18;;;;;;;11.00;8.90;;;;;;;11.87;65.56;101555.30;107087;1267;23854;-51
2023/03/22 00:48:47;;;;;;;13.80;9.20;;;;;;;11.87;65.56;101552.35;107121;1266;24234;-50
2023/03/22 00:51:17;;;;;;;10.90;9.20;;;;;;;11.87;65.49;101545.73;107091;1266;25328;-50
2023/03/22 00:53:49;;;;;;;10.70;8.80;;;;;;;11.87;65.62;101547.66;107046;1269;25408;-50
2023/03/22 00:56:18;;;;;;;11.50;9.10;;;;;;;11.87;65.60;101543.99;106896;1272;25214;-51
2023/03/22 00:58:57;;;;;;;12.60;9.50;;;;;;;11.88;65.64;101542.94;107101;1266;26547;-51
2023/03/22 01:01:31;;;;;;;12.30;10.10;;;;;;;11.89;65.66;101544.30;107170;1266;25352;-50
2023/03/22 01:04:01;;;;;;;12.80;10.00;;;;;;;11.90;65.58;101541.86;106921;1267;25327;-50
2023/03/22 01:06:32;;;;;;;10.90;8.60;;;;;;;11.91;65.61;101545.86;107177;1266;25345;-50
2023/03/22 01:09:00;;;;;;;14.30;9.80;;;;;;;11.92;65.62;101542.53;107139;1270;22520;-50
2023/03/22 01:11:32;;;;;;;11.20;9.10;;;;;;;11.93;65.65;101546.17;106377;1266;1003751;-50
2023/03/22 01:14:01;;;;;;;13.20;9.20;;;;;;;11.93;65.62;101543.21;107230;1266;25217;-49
2023/03/22 01:16:30;;;;;;;10.10;8.90;;;;;;;11.92;65.59;101546.89;107048;1269;22592;-50
2023/03/22 01:18:59;;;;;;;14.20;8.80;;;;;;;11.93;65.55;101548.79;106837;1274;25502;-50
2023/03/22 01:21:27;;;;;;;15.10;9.80;;;;;;;11.94;65.57;101551.38;106436;1267;1003076;-50
2023/03/22 01:23:56;;;;;;;12.10;9.20;;;;;;;11.94;65.37;101551.18;106859;1272;25328;-50
2023/03/22 01:26:25;;;;;;;12.80;8.90;;;;;;;11.94;65.39;101551.19;107203;1266;22575;-49
2023/03/22 01:28:54;;;;;;;12.00;8.30;;;;;;;11.93;65.59;101553.99;107094;1266;25359;-50
2023/03/22 01:31:22;;;;;;;10.70;9.30;;;;;;;11.94;65.54;101555.88;106993;1267;25331;-50
2023/03/22 01:33:51;;;;;;;11.20;9.00;;;;;;;11.94;65.52;101555.88;107115;1266;28659;-49
2023/03/22 01:36:22;;;;;;;12.80;9.20;;;;;;;11.93;65.47;101553.80;106987;1267;22636;-50
2023/03/22 01:38:50;;;;;;;10.70;8.80;;;;;;;11.93;65.47;101550.67;107027;1269;22546;-50
2023/03/22 01:41:20;;;;;;;12.20;9.40;;;;;;;11.93;65.45;101550.33;107169;1266;25350;-50
2023/03/22 01:44:13;;;;;;;12.00;9.20;;;;;;;11.94;65.36;101551.55;107110;1266;22507;-50
2023/03/22 01:46:43;;;;;;;10.80;9.30;;;;;;;11.92;65.31;101552.61;107111;1266;25439;-50
2023/03/22 01:49:24;;;;;;;12.90;9.10;;;;;;;11.92;65.22;101549.83;107084;1270;24231;-50
2023/03/22 01:51:55;;;;;;;10.90;9.10;;;;;;;11.89;65.29;101549.19;107046;1266;24193;-50
2023/03/22 01:54:47;;;;;;;10.90;9.20;;;;;;;11.88;65.34;101547.80;107015;1266;25410;-50
2023/03/22 01:57:37;;;;;;;14.70;8.80;;;;;;;11.87;65.44;101547.83;107066;1270;22908;-50
2023/03/22 02:00:11;;;;;;;13.90;9.30;;;;;;;11.86;65.39;101541.75;107034;1266;25101;-50
2023/03/22 02:03:01;;;;;;;11.40;8.90;;;;;;;11.85;65.48;101541.95;106782;1269;25346;-49
2023/03/22 02:05:35;;;;;;;12.10;9.20;;;;;;;11.84;65.64;101541.08;107085;1266;25369;-49
2023/03/22 02:08:08;;;;;;;14.70;8.90;;;;;;;11.84;65.48;101544.56;106430;1267;1002962;-50
2023/03/22 02:10:51;;;;;;;14.00;10.00;;;;;;;11.84;65.52;101542.82;107086;1270;25417;-50
2023/03/22 02:13:38;;;;;;;13.10;9.50;;;;;;;11.84;65.58;101540.91;106831;1270;22673;-50
2023/03/22 02:17:00;;;;;;;12.60;9.90;;;;;;;11.83;65.54;101539.89;106912;1266;25484;-50
2023/03/22 02:20:09;;;;;;;11.40;9.20;;;;;;;11.82;65.67;101540.23;106350;1275;25288;-50
2023/03/22 02:23:12;;;;;;;13.10;9.10;;;;;;;11.80;65.71;101542.36;106422;1275;25401;-50
2023/03/22 02:26:20;;;;;;;12.60;9.70;;;;;;;11.79;65.79;101542.01;106325;1278;25367;-51
2023/03/22 02:28:54;;;;;;;13.70;9.40;;;;;;;11.78;65.80;101546.73;105985;1280;25345;-50
2023/03/22 02:31:49;;;;;;;12.60;10.00;;;;;;;11.79;65.80;101552.11;106030;1279;22531;-50
2023/03/22 02:34:59;;;;;;;15.30;9.60;;;;;;;11.79;65.84;101553.49;105667;1290;22542;-50
2023/03/22 02:37:37;;;;;;;15.70;10.90;;;;;;;11.80;65.80;101550.53;105142;1292;25350;-51
2023/03/22 02:40:34;;;;;;;15.90;10.70;;;;;;;11.80;65.77;101551.91;105056;1299;25347;-51
2023/03/22 02:43:09;;;;;;;15.80;10.30;;;;;;;11.80;65.78;101550.52;105089;1292;25376;-51
2023/03/22 02:45:47;;;;;;;14.80;9.90;;;;;;;11.80;65.76;101553.14;105080;1293;23740;-50
2023/03/22 02:48:19;;;;;;;11.30;10.00;;;;;;;11.79;65.63;101558.18;105177;1293;22567;-51
2023/03/22 02:50:51;;;;;;;14.30;9.90;;;;;;;11.78;65.64;101560.46;105078;1292;22552;-50
2023/03/22 02:53:28;;;;;;;11.10;9.40;;;;;;;11.76;65.63;101558.76;105079;1292;25372;-51
2023/03/22 02:55:59;;;;;;;14.50;9.70;;;;;;;11.76;65.64;101561.02;105324;1288;25332;-52
2023/03/22 02:58:45;;;;;;;18.70;10.20;;;;;;;11.75;65.64;101568.33;105604;1289;25356;-51
2023/03/22 03:01:37;;;;;;;14.80;9.30;;;;;;;11.75;65.62;101570.75;105633;1289;25289;-50
2023/03/22 03:04:10;;;;;;;11.40;9.60;;;;;;;11.75;65.51;101571.27;105923;1281;22609;-51
2023/03/22 03:06:44;;;;;;;11.00;9.10;;;;;;;11.75;65.50;101569.70;106018;1281;25536;-50
2023/03/22 03:09:16;;;;;;;11.60;9.60;;;;;;;11.74;65.49;101567.13;105905;1281;22577;-51
2023/03/22 03:11:50;;;;;;;14.30;9.20;;;;;;;11.75;65.45;101572.32;106088;1275;22544;-50
2023/03/22 03:14:27;;;;;;;17.00;10.40;;;;;;;11.74;65.47;101573.04;106436;1267;22637;-51
2023/03/22 03:17:29;;;;;;;13.70;9.50;;;;;;;11.74;65.34;101573.73;107128;1267;25404;-51
2023/03/22 03:20:20;;;;;;;13.30;10.10;;;;;;;11.74;65.37;101574.08;106462;1266;1002704;-51
2023/03/22 03:23:27;;;;;;;11.30;9.80;;;;;;;11.85;65.00;101572.71;107180;1266;25389;-51
2023/03/22 03:26:11;;;;;;;12.30;10.10;;;;;;;11.87;64.85;101572.84;107102;1267;25370;-50
2023/03/22 03:28:51;;;;;;;15.90;10.20;;;;;;;11.76;65.10;101575.95;107139;1266;25353;-50
2023/03/22 03:31:33;;;;;;;12.80;10.90;;;;;;;11.74;65.17;101568.16;107074;1273;24186;-49
2023/03/22 03:34:34;;;;;;;11.70;10.40;;;;;;;11.74;65.06;101569.39;107053;1272;24205;-49
2023/03/22 03:37:07;;;;;;;13.30;9.80;;;;;;;11.74;65.07;101568.33;106668;1278;22584;-50
2023/03/22 03:39:49;;;;;;;12.50;9.70;;;;;;;11.74;65.08;101569.73;106512;1275;24293;-50
2023/03/22 03:42:18;;;;;;;13.40;9.90;;;;;;;11.74;65.03;101569.23;106710;1275;25332;-49
2023/03/22 03:44:47;;;;;;;13.10;10.00;;;;;;;11.73;64.97;101572.52;106468;1275;25393;-50
2023/03/22 03:47:15;;;;;;;13.00;9.60;;;;;;;11.68;65.04;101571.04;106472;1275;25478;-50
2023/03/22 03:49:45;;;;;;;16.80;9.30;;;;;;;11.66;65.10;101573.46;106502;1273;22527;-50
2023/03/22 03:52:14;;;;;;;12.10;10.00;;;;;;;11.72;64.94;101572.53;106647;1273;22851;-51
2023/03/22 03:54:42;;;;;;;10.50;8.90;;;;;;;11.74;64.81;101575.29;106495;1278;24246;-50
2023/03/22 03:57:21;;;;;;;12.50;9.30;;;;;;;11.74;64.70;101578.77;106559;1278;25422;-50
2023/03/22 03:59:49;;;;;;;11.10;9.20;;;;;;;11.74;64.75;101581.55;106578;1275;22537;-50
2023/03/22 04:02:28;;;;;;;14.60;10.10;;;;;;;11.74;64.60;101578.08;106584;1276;25344;-51
2023/03/22 04:04:58;;;;;;;12.90;9.20;;;;;;;11.73;64.59;101580.34;106661;1274;25236;-50
2023/03/22 04:07:27;;;;;;;12.60;9.60;;;;;;;11.73;64.49;101579.11;106650;1273;25565;-51
2023/03/22 04:09:56;;;;;;;11.90;9.90;;;;;;;11.71;64.46;101582.11;106617;1273;24278;-51
2023/03/22 04:12:27;;;;;;;;;;;;;;;11.71;64.33;101585.41;106661;1277;25321;-50
2023/03/22 04:15:16;;;;;;;13.10;10.30;;;;;;;11.71;64.28;101587.85;106802;1274;25766;-50
2023/03/22 04:17:48;;;;;;;11.80;10.10;;;;;;;11.70;64.28;101594.29;107142;1267;26576;-50
2023/03/22 04:20:18;;;;;;;14.10;10.90;;;;;;;11.71;64.24;101595.67;107066;1270;22517;-50
2023/03/22 04:22:47;;;;;;;14.50;10.90;;;;;;;11.70;64.26;101596.90;107124;1269;25337;-51
2023/03/22 04:25:18;;;;;;;17.90;12.20;;;;;;;11.70;64.36;101602.80;107033;1270;25340;-50
2023/03/22 04:27:54;;;;;;;21.00;11.30;;;;;;;11.70;64.39;101604.90;106894;1270;24476;-51
2023/03/22 04:30:23;;;;;;;15.10;12.10;;;;;;;11.69;64.42;101609.08;107146;1267;22533;-50
2023/03/22 04:33:05;;;;;;;14.30;10.70;;;;;;;11.72;64.33;101612.34;107120;1266;25328;-50
2023/03/22 04:35:55;;;;;;;15.70;10.80;;;;;;;11.71;64.43;101617.22;106866;1259;25334;-50
2023/03/22 04:38:30;;;;;;;17.00;10.20;;;;;;;11.71;64.41;101616.34;107114;1266;24332;-51
2023/03/22 04:40:59;;;;;;;11.10;9.90;;;;;;;11.71;64.45;101621.39;107098;1273;25366;-51
2023/03/22 04:43:49;;;;;;;13.10;10.40;;;;;;;11.71;64.43;101619.13;106941;1267;22518;-50
2023/03/22 04:46:20;;;;;;;16.10;11.30;;;;;;;11.72;64.50;101623.63;107235;1266;22654;-51
2023/03/22 04:49:05;;;;;;;13.30;10.40;;;;;;;11.74;64.50;101623.42;107169;1266;25427;-50
2023/03/22 04:51:36;;;;;;;12.60;10.50;;;;;;;11.76;64.48;101626.55;107062;1251;25284;-49
2023/03/22 04:54:34;;;;;;;14.00;10.60;;;;;;;11.77;64.45;101622.87;106785;1267;22520;-50
2023/03/22 04:57:03;;;;;;;13.20;11.30;;;;;;;11.78;64.61;101623.73;107082;1272;25325;-50
2023/03/22 04:59:37;;;;;;;13.60;11.20;;;;;;;11.75;64.61;101621.51;106059;1254;1003438;-49
2023/03/22 05:02:05;;;;;;;12.50;11.00;;;;;;;11.80;64.58;101618.84;106077;1276;1002867;-50
2023/03/22 05:04:40;;;;;;;15.80;11.20;;;;;;;11.82;64.60;101623.86;107010;1269;25318;-50
2023/03/22 05:07:18;;;;;;;14.20;11.60;;;;;;;11.85;64.67;101629.03;106123;1272;1002905;-50
2023/03/22 05:09:54;;;;;;;14.50;10.60;;;;;;;11.87;64.62;101630.56;106815;1272;25500;-49
2023/03/22 05:12:23;;;;;;;14.80;12.10;;;;;;;11.89;64.64;101627.94;106824;1267;22521;-50
2023/03/22 05:15:13;;;;;;;13.10;11.70;;;;;;;11.92;64.63;101628.95;106954;1254;25507;-50
2023/03/22 05:17:43;;;;;;;12.60;11.00;;;;;;;11.91;64.70;101629.65;106046;1260;1003169;-50
2023/03/22 05:20:12;;;;;;;14.20;10.90;;;;;;;11.84;65.02;101632.88;106952;1267;26628;-50
2023/03/22 05:22:44;;;;;;;19.60;12.50;;;;;;;11.85;65.16;101634.42;106517;1270;23122;-51
2023/03/22 05:25:12;;;;;;;17.20;11.30;;;;;;;11.88;65.28;101637.17;106995;1268;22639;-50
2023/03/22 05:27:43;;;;;;;16.30;12.00;;;;;;;11.92;65.22;101639.55;106985;1267;25455;-50
2023/03/22 05:30:31;;;;;;;13.50;11.60;;;;;;;12.09;64.83;101646.45;107174;1266;25390;-50
2023/03/22 05:33:08;;;;;;;17.50;11.90;;;;;;;12.16;64.83;101648.61;107217;1267;24285;-50
2023/03/22 05:35:41;;;;;;;13.20;11.20;;;;;;;12.20;64.83;101651.34;107001;1270;25356;-50
2023/03/22 05:38:10;;;;;;;13.60;11.80;;;;;;;12.24;64.69;101654.23;106903;1256;22721;-50
2023/03/22 05:40:43;;;;;;;13.10;10.90;;;;;;;12.19;65.00;101661.08;107092;1272;25407;-50
2023/03/22 05:43:12;;;;;;;15.10;10.80;;;;;;;12.31;64.79;101659.02;107101;1272;24383;-50
2023/03/22 05:45:48;;;;;;;15.40;12.00;;;;;;;12.36;64.73;101657.88;107111;1270;25408;-50
2023/03/22 05:48:45;;;;;;;15.70;12.70;;;;;;;12.43;64.70;101660.21;106889;1273;25321;-50
2023/03/22 05:51:17;;;;;;;18.20;12.50;;;;;;;12.48;64.70;101666.24;107112;1266;25386;-49
2023/03/22 05:53:52;;;;;;;16.60;12.90;;;;;;;12.52;64.54;101668.59;107105;1267;22547;-50
2023/03/22 05:56:29;;;;;;;22.40;16.40;;;;;;;12.57;64.24;101668.70;106837;1273;25349;-50
2023/03/22 05:59:04;;;;;;;126.30;66.60;;;;;;;12.61;64.12;101670.19;107181;1268;25379;-50
2023/03/22 06:01:33;;;;;;;152.60;92.40;;;;;;;12.65;63.93;101668.04;107026;1270;25363;-50
2023/03/22 06:04:10;;;;;;;71.00;50.60;;;;;;;12.68;63.95;101668.52;107005;1270;25302;-50
2023/03/22 06:06:59;;;;;;;39.10;31.70;;;;;;;12.74;63.89;101673.66;106991;1270;25346;-50
2023/03/22 06:09:40;;;;;;;24.60;20.90;;;;;;;12.74;63.70;101675.23;106956;1269;25311;-49
2023/03/22 06:12:21;;;;;;;83.60;74.90;;;;;;;12.80;63.51;101677.73;106997;1269;25401;-50
2023/03/22 06:14:54;;;;;;;53.30;46.80;;;;;;;12.86;63.41;101680.94;106829;1269;26640;-50
2023/03/22 06:17:41;;;;;;;52.40;46.70;;;;;;;12.93;63.15;101680.81;106968;1268;25366;-49
2023/03/22 06:20:16;;;;;;;113.20;101.80;;;;;;;12.91;63.37;101676.32;106949;1269;25305;-50
2023/03/22 06:22:54;;;;;;;69.90;62.70;;;;;;;13.03;63.03;101684.14;106945;1270;25334;-50
2023/03/22 06:25:23;;;;;;;50.80;45.60;;;;;;;13.07;62.70;101686.52;106793;1269;25275;-50
2023/03/22 06:27:52;;;;;;;42.20;37.90;;;;;;;12.99;62.84;101683.67;106755;1276;25362;-51
2023/03/22 06:30:22;;;;;;;22.70;19.70;;;;;;;13.02;62.96;101681.38;106989;1270;25349;-50
2023/03/22 06:33:04;;;;;;;22.00;17.20;;;;;;;13.10;62.99;101682.48;106788;1270;25325;-51
2023/03/22 06:35:36;;;;;;;14.90;12.40;;;;;;;13.17;62.80;101681.66;107122;1269;25328;-49
2023/03/22 06:38:05;;;;;;;18.50;12.50;;;;;;;13.23;62.62;101681.55;106947;1273;25346;-49
2023/03/22 06:40:36;;;;;;;13.10;10.90;;;;;;;13.30;62.38;101680.55;106931;1274;26468;-50
2023/03/22 06:43:06;;;;;;;16.90;13.30;;;;;;;13.38;62.11;101680.59;106877;1269;25322;-50
2023/03/22 06:45:39;;;;;;;18.70;16.70;;;;;;;13.46;61.92;101679.72;106810;1269;25490;-50
2023/03/22 06:48:08;;;;;;;20.40;14.30;;;;;;;13.53;61.96;101681.17;107031;1267;25494;-50
2023/03/22 06:50:52;;;;;;;38.90;25.40;;;;;;;13.62;61.58;101684.11;107109;1267;25331;-50
2023/03/22 06:53:33;;;;;;;21.30;17.30;;;;;;;13.70;61.23;101685.70;107139;1266;25346;-50
2023/03/22 06:56:03;;;;;;;23.40;17.00;;;;;;;13.77;61.13;101682.43;106902;1270;24389;-50
2023/03/22 06:58:37;;;;;;;18.20;13.50;;;;;;;13.84;61.09;101686.11;107089;1269;25349;-50
2023/03/22 07:01:06;;;;;;;18.40;11.70;;;;;;;13.92;61.06;101687.00;107132;1266;25424;-49
2023/03/22 07:03:37;;;;;;;17.50;11.80;;;;;;;14.00;60.66;101692.08;107156;1267;25346;-49
2023/03/22 07:06:13;;;;;;;12.20;10.10;;;;;;;14.08;60.48;101696.79;106908;1266;22486;-49
2023/03/22 07:08:44;;;;;;;13.40;9.60;;;;;;;14.15;60.26;101701.68;107023;1271;25438;-49
2023/03/22 07:11:18;;;;;;;13.60;10.10;;;;;;;14.22;60.05;101704.67;107066;1273;25399;-51
2023/03/22 07:13:52;;;;;;;12.50;9.50;;;;;;;14.29;59.66;101707.86;107040;1273;25328;-49
2023/03/22 07:16:21;;;;;;;10.90;9.80;;;;;;;14.35;59.50;101709.66;106880;1268;327175;-48
2023/03/22 07:19:01;;;;;;;11.40;10.20;;;;;;;14.49;58.88;101711.95;106259;1271;1003459;-48
2023/03/22 07:21:30;;;;;;;13.20;10.60;;;;;;;14.57;58.62;101711.94;107083;1270;22776;-49
2023/03/22 07:30:23;;;;;;;12.60;10.40;;;;;;;14.83;58.04;101711.34;106893;1270;26731;-49
2023/03/22 07:32:52;;;;;;;12.10;10.60;;;;;;;14.90;57.61;101713.09;106735;1270;25275;-49
2023/03/22 07:35:20;;;;;;;11.70;10.30;;;;;;;14.93;57.25;101718.08;107016;1271;22580;-49
2023/03/22 07:37:51;;;;;;;14.50;11.10;;;;;;;14.95;57.09;101714.88;106874;1261;25328;-49
2023/03/22 07:40:25;;;;;;;13.90;11.50;;;;;;;14.85;57.15;101714.09;106984;1273;24234;-49
2023/03/22 07:42:55;;;;;;;13.40;11.30;;;;;;;14.80;57.07;101714.56;106801;1274;25223;-49
2023/03/22 07:45:35;;;;;;;15.50;11.40;;;;;;;14.77;57.11;101716.38;106964;1270;25347;-50
2023/03/22 07:48:42;;;;;;;12.10;10.60;;;;;;;14.71;57.21;101716.67;106890;1272;22834;-49
2023/03/22 07:51:41;;;;;;;11.90;10.00;;;;;;;14.66;57.26;101718.02;106795;1271;25328;-50
2023/03/22 07:54:10;;;;;;;13.40;10.20;;;;;;;14.62;57.33;101716.72;106796;1273;25353;-49
2023/03/22 07:56:49;;;;;;;16.80;11.20;;;;;;;14.59;57.50;101719.92;106740;1273;22641;-50
2023/03/22 07:59:19;;;;;;;11.80;9.90;;;;;;;14.58;57.59;101719.08;107098;1267;25344;-50
2023/03/22 08:01:50;;;;;;;13.60;9.90;;;;;;;14.57;57.62;101720.50;107069;1271;22514;-50
2023/03/22 08:04:26;;;;;;;11.80;9.80;;;;;;;14.57;57.62;101726.09;107213;1270;25322;-50
2023/03/22 08:07:02;;;;;;;11.20;9.10;;;;;;;14.57;57.75;101724.33;107229;1270;22522;-50
2023/03/22 08:09:35;;;;;;;10.70;9.40;;;;;;;14.60;57.84;101723.75;106997;1271;25443;-50
2023/03/22 08:12:06;;;;;;;11.70;9.00;;;;;;;14.62;57.73;101726.48;107150;1267;25335;-50
2023/03/22 08:14:36;;;;;;;9.90;8.80;;;;;;;14.64;57.72;101729.05;107092;1271;24319;-50
2023/03/22 08:17:08;;;;;;;11.00;8.70;;;;;;;14.67;57.71;101732.84;107089;1267;25424;-50
2023/03/22 08:19:38;;;;;;;9.90;8.80;;;;;;;14.69;57.69;101734.73;107153;1267;25395;-49
2023/03/22 08:22:07;;;;;;;10.50;8.50;;;;;;;14.71;57.68;101730.65;107120;1271;22517;-49
2023/03/22 08:24:56;;;;;;;10.10;8.40;;;;;;;14.74;57.77;101729.21;106641;1267;25373;-49
2023/03/22 08:27:30;;;;;;;9.10;8.20;;;;;;;14.75;57.75;101729.53;107015;1271;25325;-49
2023/03/22 08:30:00;;;;;;;13.40;8.60;;;;;;;14.75;57.62;101732.67;107165;1267;25265;-49
2023/03/22 08:32:29;;;;;;;10.50;8.10;;;;;;;14.76;57.57;101730.02;107183;1267;25397;-49
2023/03/22 08:34:58;;;;;;;9.90;8.10;;;;;;;14.76;57.50;101730.53;106852;1268;25330;-49
2023/03/22 08:37:27;;;;;;;10.60;8.00;;;;;;;14.76;57.41;101736.30;106722;1271;25360;-49
2023/03/22 08:39:55;;;;;;;8.80;7.80;;;;;;;14.76;57.38;101735.43;106700;1276;24244;-49
2023/03/22 08:42:41;;;;;;;11.30;7.60;;;;;;;14.77;57.44;101736.47;106871;1263;25381;-49
2023/03/22 08:45:10;;;;;;;10.70;7.80;;;;;;;14.79;57.41;101735.20;106397;1278;24274;-49
2023/03/22 08:47:48;;;;;;;8.20;7.40;;;;;;;14.86;57.24;101736.63;106768;1270;25337;-49
2023/03/22 08:50:17;;;;;;;9.30;8.40;;;;;;;14.91;56.96;101737.35;106785;1274;25516;-50
2023/03/22 08:52:50;;;;;;;11.40;9.20;;;;;;;14.88;56.91;101739.16;106634;1267;25360;-49
2023/03/22 08:55:26;;;;;;;12.20;9.20;;;;;;;14.88;56.53;101739.70;106740;1270;25409;-49
2023/03/22 08:58:15;;;;;;;9.60;8.60;;;;;;;14.79;56.67;101743.40;106684;1273;25343;-49
2023/03/22 09:00:52;;;;;;;8.30;7.50;;;;;;;14.81;56.57;101742.66;106833;1274;26580;-49
2023/03/22 09:03:44;;;;;;;9.20;8.30;;;;;;;14.78;56.64;101741.34;106787;1269;25315;-50
2023/03/22 09:06:13;;;;;;;9.60;8.40;;;;;;;14.75;56.59;101737.56;106651;1277;25340;-49
2023/03/22 09:08:50;;;;;;;9.30;8.10;;;;;;;14.73;56.71;101739.02;106869;1265;25517;-49
2023/03/22 09:11:22;;;;;;;11.70;9.10;;;;;;;14.69;56.72;101740.84;107106;1273;22906;-49
2023/03/22 09:13:51;;;;;;;10.30;8.20;;;;;;;14.65;56.83;101740.94;107363;1270;23514;-49
2023/03/22 09:16:20;;;;;;;11.50;8.80;;;;;;;14.60;56.96;101737.20;107406;1260;25349;-49
2023/03/22 09:18:49;;;;;;;10.00;8.90;;;;;;;14.54;57.16;101734.54;107112;1272;24488;-49
2023/03/22 09:21:20;;;;;;;9.80;8.80;;;;;;;14.45;57.53;101734.04;107152;1267;25325;-49
2023/03/22 09:23:56;;;;;;;12.40;9.60;;;;;;;14.41;57.86;101733.44;107249;1267;25350;-49
2023/03/22 10:10:16;;;;;;;8.90;7.80;;;;;;;14.35;58.21;101726.05;107073;1270;25274;-49
2023/03/22 10:12:50;;;;;;;9.00;7.70;;;;;;;14.44;57.90;101727.44;106993;1273;25408;-49
2023/03/22 10:15:32;;;;;;;11.60;8.20;;;;;;;14.53;57.60;101723.21;107056;1270;25407;-48
2023/03/22 10:18:02;;;;;;;7.80;7.00;;;;;;;14.55;57.63;101726.83;107104;1270;25349;-49
2023/03/22 10:20:33;;;;;;;8.90;7.70;;;;;;;14.57;57.58;101725.56;107038;1273;25342;-49
2023/03/22 10:23:03;;;;;;;;;;;;;;;14.60;57.52;101726.89;106864;1267;22505;-49
2023/03/22 10:25:36;;;;;;;8.90;7.40;;;;;;;14.63;57.34;101720.71;107204;1274;22527;-48
2023/03/22 10:28:19;;;;;;;8.40;7.00;;;;;;;14.65;57.20;101719.77;107050;1266;24011;-48
2023/03/22 10:30:53;;;;;;;8.00;7.20;;;;;;;14.68;57.03;101715.52;106802;1267;24650;-49
2023/03/22 10:33:51;;;;;;;7.30;6.60;;;;;;;14.67;56.95;101713.45;107064;1274;24179;-49
2023/03/22 10:36:21;;;;;;;7.60;6.70;;;;;;;14.57;57.21;101712.13;106477;1275;22528;-49
2023/03/22 10:38:53;;;;;;;9.20;7.60;;;;;;;14.61;57.11;101712.89;106533;1282;24063;-49
2023/03/22 10:41:24;;;;;;;8.70;6.80;;;;;;;14.55;57.36;101708.69;106510;1277;25470;-49
2023/03/22 10:43:55;;;;;;;7.50;6.60;;;;;;;14.55;57.36;101710.42;106497;1276;22528;-49
2023/03/22 10:46:24;;;;;;;;;;;;;;;14.56;57.36;101707.61;106518;1279;22636;-48
2023/03/22 10:48:57;;;;;;;9.90;6.80;;;;;;;14.57;57.36;101705.30;106429;1276;22596;-48
2023/03/22 10:51:30;;;;;;;;;;;;;;;14.57;57.22;101699.54;106273;1276;24216;-49
2023/03/22 10:54:00;;;;;;;8.30;7.00;;;;;;;14.56;57.09;101696.42;106500;1282;25341;-48
2023/03/22 10:56:29;;;;;;;7.40;6.60;;;;;;;14.53;57.11;101693.17;106552;1277;24139;-49
2023/03/22 10:58:59;;;;;;;7.70;6.70;;;;;;;14.49;57.23;101691.71;106609;1282;25490;-49
2023/03/22 11:01:30;;;;;;;7.80;7.10;;;;;;;14.44;57.33;101685.89;106529;1275;25461;-49
2023/03/22 11:04:06;;;;;;;8.30;6.20;;;;;;;14.44;57.23;101686.75;106397;1280;24213;-49
2023/03/22 11:06:40;;;;;;;8.70;7.40;;;;;;;14.44;57.49;101685.88;106428;1276;22674;-50
2023/03/22 11:09:15;;;;;;;9.60;7.10;;;;;;;14.48;57.43;101685.27;106501;1277;24277;-49
2023/03/22 11:11:52;;;;;;;7.60;6.90;;;;;;;14.62;57.18;101684.94;106456;1277;22545;-49
2023/03/22 11:14:30;;;;;;;9.60;6.60;;;;;;;14.56;57.37;101684.38;106849;1270;22505;-49
2023/03/22 11:16:59;;;;;;;8.70;7.90;;;;;;;14.60;57.42;101681.14;107076;1266;22761;-49
2023/03/22 11:19:35;;;;;;;8.10;7.30;;;;;;;14.64;57.07;101679.13;107053;1270;25481;-49
2023/03/22 11:22:14;;;;;;;8.10;6.90;;;;;;;14.62;57.11;101677.96;107150;1270;25319;-49
2023/03/22 11:24:44;;;;;;;9.20;7.90;;;;;;;14.63;57.12;101675.66;107175;1274;23861;-50
2023/03/22 11:27:19;;;;;;;8.40;7.20;;;;;;;14.65;57.03;101675.60;107058;1274;25377;-50
2023/03/22 11:29:49;;;;;;;8.20;7.40;;;;;;;14.67;56.93;101673.83;106833;1274;22580;-49
2023/03/22 11:32:34;;;;;;;7.90;7.00;;;;;;;14.72;56.98;101674.58;107120;1266;22547;-49
2023/03/22 11:35:16;;;;;;;9.10;7.80;;;;;;;14.79;56.66;101669.86;107094;1270;22564;-49
2023/03/22 11:37:49;;;;;;;7.60;6.90;;;;;;;14.83;56.53;101667.14;107084;1267;22654;-49
2023/03/22 11:40:26;;;;;;;8.30;7.50;;;;;;;14.87;56.33;101669.66;107172;1266;25349;-50
2023/03/22 11:43:15;;;;;;;7.70;6.90;;;;;;;14.92;56.21;101668.14;107095;1273;22539;-49
2023/03/22 11:45:44;;;;;;;9.80;7.80;;;;;;;14.98;56.04;101669.05;107007;1267;24216;-49
2023/03/22 11:48:15;;;;;;;8.80;7.90;;;;;;;15.02;55.86;101664.91;106966;1274;25359;-49
2023/03/22 11:50:44;;;;;;;12.10;8.30;;;;;;;15.08;55.61;101660.05;107085;1267;22628;-49
2023/03/22 11:53:15;;;;;;;9.40;8.00;;;;;;;15.10;55.53;101661.20;107100;1267;23108;-50
2023/03/22 11:55:44;;;;;;;7.90;7.10;;;;;;;15.16;55.22;101656.52;106972;1269;22531;-50
2023/03/22 11:58:43;;;;;;;8.40;7.60;;;;;;;15.22;54.96;101654.06;106985;1267;26111;-50
2023/03/22 12:01:15;;;;;;;8.80;7.30;;;;;;;15.22;54.87;101650.56;107104;1267;22562;-49
2023/03/22 12:03:43;;;;;;;;;;;;;;;15.22;54.95;101650.58;107104;1267;24824;-49
2023/03/22 12:06:31;;;;;;;9.80;7.50;;;;;;;15.24;54.77;101654.55;106746;1267;24200;-49
2023/03/22 12:09:18;;;;;;;8.30;7.50;;;;;;;15.12;54.97;101652.58;106907;1264;24537;-49
2023/03/22 12:11:55;;;;;;;8.90;7.50;;;;;;;15.08;55.13;101650.27;107165;1267;25327;-49
2023/03/22 12:14:28;;;;;;;8.30;7.30;;;;;;;15.19;54.91;101646.28;107121;1270;25411;-50
2023/03/22 12:17:25;;;;;;;8.60;7.70;;;;;;;15.26;54.72;101644.18;107057;1274;25321;-49
2023/03/22 12:20:23;;;;;;;8.30;6.90;;;;;;;15.31;54.57;101643.17;107068;1251;23155;-49
2023/03/22 12:22:53;;;;;;;7.20;6.50;;;;;;;15.33;54.30;101637.85;106870;1266;22638;-49
2023/03/22 12:25:30;;;;;;;8.70;7.10;;;;;;;15.34;54.10;101635.21;107137;1267;22542;-49
2023/03/22 12:28:05;;;;;;;9.50;7.30;;;;;;;15.35;53.98;101638.84;107122;1251;24336;-50
2023/03/22 12:30:46;;;;;;;8.80;7.30;;;;;;;15.35;53.88;101639.02;107007;1267;22532;-50
2023/03/22 12:33:31;;;;;;;9.20;8.10;;;;;;;15.35;53.77;101642.17;106991;1273;25347;-49
2023/03/22 12:36:01;;;;;;;7.80;7.00;;;;;;;15.29;53.78;101646.73;106924;1267;25419;-49
2023/03/22 12:38:52;;;;;;;10.60;7.50;;;;;;;15.16;54.07;101647.59;107112;1260;22532;-50